createdAt,value
2019-06-07T00:00:39.158Z,0.8
2019-06-07T00:03:35.215Z,0.6
2019-06-07T00:04:35.336Z,0.6
2019-06-07T00:05:35.588Z,0.8
2019-06-07T00:06:55.845Z,0.8
2019-06-07T00:07:50.813Z,0.8
2019-06-07T00:09:50.949Z,0.6
2019-06-07T00:10:51.155Z,0.8
2019-06-07T00:12:12.323Z,0.8
2019-06-07T00:16:23.099Z,0.8
2019-06-07T00:17:21.905Z,0.8
2019-06-07T00:19:52.108Z,0.8
2019-06-07T00:20:52.205Z,0.8
2019-06-07T00:22:17.920Z,0.8
2019-06-07T00:22:52.456Z,0.8
2019-06-07T00:23:52.722Z,0.8
2019-06-07T00:24:52.740Z,0.6
2019-06-07T00:25:52.565Z,0.8
2019-06-07T00:27:12.980Z,0.8
2019-06-07T00:41:29.223Z,0.4
2019-06-07T00:42:29.217Z,0.8
2019-06-07T00:43:29.531Z,0.8
2019-06-07T00:44:29.699Z,0.6
2019-06-07T00:48:32.801Z,0.4
2019-06-07T00:49:40.312Z,0.6
2019-06-07T00:51:01.213Z,0.4
2019-06-07T00:52:01.182Z,0.8
2019-06-07T00:53:18.133Z,0.8
2019-06-07T01:01:32.658Z,0.4
2019-06-07T01:06:53.153Z,0.0
2019-06-07T01:07:46.143Z,0.0
2019-06-07T01:08:36.325Z,0.0
2019-06-07T01:09:26.387Z,0.0
2019-06-07T01:10:51.290Z,0.0
2019-06-07T01:11:46.653Z,0.0
2019-06-07T01:12:36.846Z,0.0
2019-06-07T01:13:46.983Z,0.0
2019-06-07T01:14:47.140Z,0.0
2019-06-07T01:15:47.299Z,0.0
2019-06-07T01:17:23.220Z,0.0
2019-06-07T01:18:25.794Z,0.0
2019-06-07T01:18:51.242Z,0.0
2019-06-07T01:19:47.644Z,0.0
2019-06-07T01:20:47.752Z,0.0
2019-06-07T01:22:07.785Z,0.0
2019-06-07T01:22:57.812Z,0.0
2019-06-07T01:24:07.822Z,0.0
2019-06-07T01:24:47.885Z,0.0
2019-06-07T01:25:48.099Z,0.0
2019-06-07T01:27:08.257Z,0.0
2019-06-07T01:27:48.334Z,0.0
2019-06-07T01:28:48.347Z,0.0
2019-06-07T01:29:48.648Z,0.0
2019-06-07T01:30:58.781Z,0.0
2019-06-07T01:32:20.632Z,0.8
2019-06-07T01:35:09.099Z,0.6
2019-06-07T01:36:30.888Z,0.4
2019-06-07T01:37:22.734Z,0.2
2019-06-07T01:38:00.085Z,0.4
2019-06-07T01:39:00.507Z,0.8
2019-06-07T01:40:00.634Z,0.2
2019-06-07T01:41:00.716Z,0.0
2019-06-07T01:42:22.563Z,0.0
2019-06-07T01:46:31.376Z,0.4
2019-06-07T01:47:32.242Z,0.2
2019-06-07T01:48:48.379Z,0.0
2019-06-07T01:49:31.632Z,0.2
2019-06-07T01:50:24.775Z,0.9
2019-06-07T01:51:22.198Z,0.4
2019-06-07T01:52:23.432Z,0.8
2019-06-07T01:54:48.466Z,0.6
2019-06-07T01:55:02.710Z,0.8
2019-06-07T01:56:25.667Z,0.9
2019-06-07T01:57:37.825Z,1.0
2019-06-07T02:01:35.060Z,0.9
2019-06-07T02:02:25.607Z,0.9
2019-06-07T02:03:03.444Z,0.6
2019-06-07T02:04:03.522Z,0.8
2019-06-07T02:05:03.522Z,0.8
2019-06-07T02:06:27.111Z,0.0
2019-06-07T02:07:24.749Z,0.0
2019-06-07T02:11:34.150Z,0.0
2019-06-07T02:12:31.605Z,0.0
2019-06-07T02:13:04.292Z,0.0
2019-06-07T02:14:04.690Z,0.0
2019-06-07T02:15:04.873Z,0.0
2019-06-07T02:16:28.910Z,0.0
2019-06-07T02:17:35.221Z,0.0
2019-06-07T02:18:35.251Z,0.0
2019-06-07T02:19:35.356Z,0.0
2019-06-07T02:20:15.264Z,0.0
2019-06-07T02:21:35.380Z,0.0
2019-06-07T02:22:27.519Z,0.0
2019-06-07T02:23:05.562Z,0.0
2019-06-07T02:24:05.643Z,0.0
2019-06-07T02:25:34.924Z,0.0
2019-06-07T02:26:29.478Z,0.0
2019-06-07T02:27:27.373Z,0.0
2019-06-07T02:28:29.692Z,0.0
2019-06-07T02:29:15.921Z,0.0
2019-06-07T02:30:40.020Z,0.0
2019-06-07T02:31:38.984Z,0.0
2019-06-07T02:32:29.649Z,0.0
2019-06-07T02:33:06.022Z,0.0
2019-06-07T02:34:06.042Z,0.4
2019-06-07T02:35:06.211Z,0.0
2019-06-07T02:36:29.583Z,0.4
2019-06-07T02:37:33.923Z,0.6
2019-06-07T02:38:21.984Z,0.0
2019-06-07T02:41:22.562Z,0.0
2019-06-07T02:42:25.207Z,0.0
2019-06-07T02:43:01.030Z,0.0
2019-06-07T02:44:00.548Z,0.0
2019-06-07T02:45:00.886Z,0.0
2019-06-07T02:46:26.154Z,0.0
2019-06-07T02:47:22.377Z,0.0
2019-06-07T02:51:23.392Z,0.0
2019-06-07T02:52:21.250Z,0.0
2019-06-07T02:53:01.474Z,0.0
2019-06-07T02:54:01.623Z,0.4
2019-06-07T02:55:01.790Z,0.0
2019-06-07T02:56:46.281Z,0.2
2019-06-07T02:57:21.916Z,0.0
2019-06-07T03:00:16.901Z,0.0
2019-06-07T03:01:22.303Z,0.4
2019-06-07T03:02:22.267Z,0.0
2019-06-07T03:13:04.066Z,0.0
2019-06-07T03:13:53.923Z,0.0
2019-06-07T03:14:53.941Z,0.0
2019-06-07T03:16:24.490Z,0.0
2019-06-07T03:17:24.267Z,0.0
2019-06-07T03:18:04.275Z,0.0
2019-06-07T03:19:04.329Z,0.0
2019-06-07T03:20:04.409Z,0.0
2019-06-07T03:21:36.320Z,0.0
2019-06-07T03:22:35.767Z,0.0
2019-06-07T03:23:14.685Z,0.0
2019-06-07T03:24:14.755Z,0.0
2019-06-07T03:25:14.834Z,0.0
2019-06-07T03:27:31.673Z,0.0
2019-06-07T03:27:49.741Z,0.0
2019-06-07T03:28:45.067Z,0.0
2019-06-07T03:29:45.254Z,0.0
2019-06-07T03:31:00.591Z,0.0
2019-06-07T03:32:15.474Z,0.0
2019-06-07T03:32:55.515Z,0.0
2019-06-07T03:33:45.808Z,0.0
2019-06-07T03:34:45.815Z,0.0
2019-06-07T03:35:45.833Z,0.0
2019-06-07T03:37:24.953Z,0.0
2019-06-07T03:38:04.535Z,0.0
2019-06-07T03:39:04.624Z,0.0
2019-06-07T03:40:04.761Z,0.0
2019-06-07T03:41:24.960Z,0.0
2019-06-07T03:42:25.307Z,0.2
2019-06-07T03:43:05.236Z,0.6
2019-06-07T03:44:05.291Z,0.8
2019-06-07T03:45:05.384Z,0.8
2019-06-07T03:46:27.222Z,0.2
2019-06-07T03:47:28.333Z,0.0
2019-06-07T03:48:16.054Z,0.0
2019-06-07T03:49:16.185Z,0.0
2019-06-07T03:50:16.473Z,0.0
2019-06-07T03:51:39.590Z,0.0
2019-06-07T03:52:27.431Z,0.0
2019-06-07T03:53:06.617Z,0.0
2019-06-07T03:54:06.786Z,0.2
2019-06-07T03:55:06.945Z,0.8
2019-06-07T03:56:28.281Z,0.8
2019-06-07T03:57:28.612Z,0.8
2019-06-07T03:58:31.156Z,0.8
2019-06-07T03:59:17.330Z,0.8
2019-06-07T04:00:17.509Z,0.9
2019-06-07T04:01:39.841Z,0.8
2019-06-07T04:02:27.918Z,0.8
2019-06-07T04:03:07.861Z,0.8
2019-06-07T04:04:08.126Z,0.4
2019-06-07T04:05:08.131Z,0.8
2019-06-07T04:06:29.480Z,0.6
2019-06-07T04:07:36.058Z,0.2
2019-06-07T04:08:23.021Z,0.0
2019-06-07T04:11:35.061Z,0.0
2019-06-07T04:12:23.419Z,0.0
2019-06-07T04:13:03.469Z,0.0
2019-06-07T04:14:03.473Z,0.0
2019-06-07T04:15:03.640Z,0.0
2019-06-07T04:16:23.868Z,0.0
2019-06-07T04:17:24.566Z,0.0
2019-06-07T04:18:14.626Z,0.0
2019-06-07T04:19:14.644Z,0.0
2019-06-07T04:20:14.859Z,0.0
2019-06-07T04:21:37.255Z,0.0
2019-06-07T04:22:25.093Z,0.0
2019-06-07T04:23:16.960Z,0.0
2019-06-07T04:24:05.504Z,0.0
2019-06-07T04:25:05.507Z,0.0
2019-06-07T04:26:25.713Z,0.0
2019-06-07T04:27:39.177Z,0.0
2019-06-07T04:28:15.869Z,0.0
2019-06-07T04:29:33.710Z,0.0
2019-06-07T04:30:16.126Z,0.0
2019-06-07T04:31:38.978Z,0.0
2019-06-07T04:32:26.466Z,0.0
2019-06-07T04:33:06.623Z,0.0
2019-06-07T04:34:06.863Z,0.0
2019-06-07T04:35:06.911Z,0.0
2019-06-07T04:36:40.239Z,0.0
2019-06-07T04:39:13.762Z,0.0
2019-06-07T04:40:14.044Z,0.0
2019-06-07T04:41:24.311Z,0.0
2019-06-07T04:42:24.413Z,0.0
2019-06-07T04:43:04.468Z,0.0
2019-06-07T04:44:04.911Z,0.0
2019-06-07T04:45:04.942Z,0.0
2019-06-07T04:46:25.064Z,0.0
2019-06-07T04:47:36.677Z,0.0
2019-06-07T04:48:15.206Z,0.0
2019-06-07T04:49:05.235Z,0.0
2019-06-07T04:50:05.453Z,0.0
2019-06-07T04:53:06.074Z,0.0
2019-06-07T04:54:06.232Z,0.0
2019-06-07T04:55:06.486Z,0.0
2019-06-07T04:58:06.765Z,0.0
2019-06-07T04:59:06.722Z,0.0
2019-06-07T05:00:22.520Z,0.0
2019-06-07T05:01:27.096Z,0.0
2019-06-07T05:02:16.864Z,0.0
2019-06-07T05:03:06.913Z,0.0
2019-06-07T05:04:06.943Z,0.0
2019-06-07T05:05:07.141Z,0.0
2019-06-07T05:06:17.578Z,0.0
2019-06-07T05:07:22.293Z,0.0
2019-06-07T05:08:27.338Z,0.0
2019-06-07T05:13:12.500Z,0.8
2019-06-07T05:18:13.394Z,1.0
2019-06-07T05:19:13.369Z,0.6
2019-06-07T05:20:13.424Z,0.9
2019-06-07T05:21:59.743Z,0.8
2019-06-07T05:22:45.152Z,0.8
2019-06-07T05:24:05.198Z,0.6
2019-06-07T05:24:44.238Z,0.8
2019-06-07T05:26:14.444Z,0.8
2019-06-07T05:27:14.675Z,0.8
2019-06-07T05:27:55.260Z,0.6
2019-06-07T05:28:45.136Z,0.0
2019-06-07T05:29:57.102Z,0.8
2019-06-07T05:31:15.540Z,0.2
2019-06-07T05:32:15.558Z,0.0
2019-06-07T05:32:55.585Z,0.4
2019-06-07T05:33:55.764Z,0.8
2019-06-07T05:34:55.843Z,0.8
2019-06-07T05:36:26.050Z,0.8
2019-06-07T05:37:41.670Z,0.8
2019-06-07T05:38:41.008Z,0.9
2019-06-07T05:39:42.478Z,0.8
2019-06-07T05:41:09.688Z,0.2
2019-06-07T05:41:49.737Z,0.8
2019-06-07T05:47:10.203Z,0.0
2019-06-07T05:48:10.252Z,0.2
2019-06-07T05:52:10.644Z,0.2
2019-06-07T05:53:10.793Z,0.4
2019-06-07T05:54:11.124Z,0.0
2019-06-07T05:55:11.376Z,0.0
2019-06-07T05:56:43.176Z,0.4
2019-06-07T05:57:46.501Z,0.0
2019-06-07T05:58:43.265Z,0.0
2019-06-07T05:59:44.251Z,0.0
2019-06-07T06:01:41.976Z,0.0
2019-06-07T06:01:59.625Z,0.0
2019-06-07T06:02:59.981Z,0.2
2019-06-07T06:03:43.807Z,0.4
2019-06-07T06:04:45.724Z,0.0
2019-06-07T06:12:40.488Z,0.0
2019-06-07T06:12:40.491Z,0.0
2019-06-07T06:14:04.915Z,0.0
2019-06-07T06:14:47.027Z,0.0
2019-06-07T06:16:15.788Z,0.0
2019-06-07T06:16:55.712Z,0.0
2019-06-07T06:17:49.122Z,0.0
2019-06-07T06:18:47.264Z,0.0
2019-06-07T06:19:50.253Z,0.0
2019-06-07T06:21:19.877Z,0.6
2019-06-07T06:21:56.675Z,1.3
2019-06-07T06:22:56.669Z,1.5
2019-06-07T06:23:56.854Z,1.3
2019-06-07T06:25:30.462Z,0.9
2019-06-07T06:26:27.165Z,0.8
2019-06-07T06:27:28.384Z,0.8
2019-06-07T06:28:11.910Z,0.6
2019-06-07T06:29:07.729Z,0.8
2019-06-07T06:30:07.635Z,0.9
2019-06-07T06:31:38.508Z,0.9
2019-06-07T06:32:54.872Z,0.2
2019-06-07T06:33:49.763Z,0.2
2019-06-07T06:34:50.373Z,0.8
2019-06-07T06:36:18.422Z,0.8
2019-06-07T06:36:58.436Z,0.8
2019-06-07T06:37:53.654Z,1.2
2019-06-07T06:38:53.821Z,0.8
2019-06-07T06:39:54.039Z,0.6
2019-06-07T06:41:24.167Z,0.8
2019-06-07T06:47:15.024Z,1.0
2019-06-07T06:51:36.015Z,0.9
2019-06-07T06:52:16.296Z,0.8
2019-06-07T06:53:16.147Z,0.8
2019-06-07T06:54:16.378Z,0.2
2019-06-07T06:55:16.631Z,0.0
2019-06-07T06:56:47.464Z,0.6
2019-06-07T06:57:48.333Z,0.8
2019-06-07T06:59:26.623Z,0.6
2019-06-07T06:59:50.516Z,0.0
2019-06-07T07:01:17.965Z,0.0
2019-06-07T07:01:57.799Z,0.0
2019-06-07T07:03:35.952Z,0.0
2019-06-07T07:04:04.853Z,0.0
2019-06-07T07:04:50.479Z,0.0
2019-06-07T07:06:25.665Z,0.0
2019-06-07T07:06:58.627Z,0.0
2019-06-07T07:07:59.777Z,0.0
2019-06-07T07:08:59.857Z,0.0
2019-06-07T07:10:00.203Z,0.0
2019-06-07T07:11:29.984Z,0.0
2019-06-07T07:12:12.481Z,0.0
2019-06-07T07:13:10.174Z,0.4
2019-06-07T07:14:10.369Z,0.9
2019-06-07T07:15:42.788Z,0.9
2019-06-07T07:16:42.163Z,0.4
2019-06-07T07:17:53.561Z,0.0
2019-06-07T07:18:41.783Z,0.0
2019-06-07T07:19:42.450Z,0.6
2019-06-07T07:21:11.904Z,0.9
2019-06-07T07:21:53.055Z,0.8
2019-06-07T07:22:42.670Z,0.9
2019-06-07T07:24:05.315Z,0.4
2019-06-07T07:24:42.185Z,0.2
2019-06-07T07:26:12.274Z,0.0
2019-06-07T07:26:53.778Z,0.8
2019-06-07T07:28:22.400Z,0.7
2019-06-07T07:29:02.371Z,0.0
2019-06-07T07:30:35.223Z,0.0
2019-06-07T07:30:55.152Z,0.0
2019-06-07T07:31:55.795Z,0.7
2019-06-07T07:33:23.301Z,0.8
2019-06-07T07:34:33.270Z,0.8
2019-06-07T07:35:03.640Z,1.0
2019-06-07T07:36:18.836Z,1.3
2019-06-07T07:37:04.095Z,1.1
2019-06-07T07:43:56.883Z,0.8
2019-06-07T07:45:00.544Z,1.2
2019-06-07T07:46:03.088Z,0.4
2019-06-07T07:47:00.555Z,0.8
2019-06-07T07:54:00.498Z,0.0
2019-06-07T07:58:55.989Z,0.8
2019-06-07T08:00:05.792Z,1.0
2019-06-07T08:00:56.794Z,0.8
2019-06-07T08:01:55.845Z,0.8
2019-06-07T08:03:23.066Z,0.6
2019-06-07T08:04:03.079Z,0.2
2019-06-07T08:05:22.444Z,0.8
2019-06-07T08:06:03.364Z,0.6
2019-06-07T08:06:55.737Z,0.8
2019-06-07T08:08:27.064Z,0.8
2019-06-07T08:09:07.152Z,0.8
2019-06-07T08:10:07.090Z,0.4
2019-06-07T08:11:07.344Z,0.6
2019-06-07T08:12:07.648Z,0.8
2019-06-07T08:13:37.733Z,0.2
2019-06-07T08:14:27.774Z,0.0
2019-06-07T08:15:27.762Z,0.0
2019-06-07T08:16:28.143Z,0.6
2019-06-07T08:18:01.013Z,0.8
2019-06-07T08:19:03.666Z,1.4
2019-06-07T08:20:02.783Z,1.1
2019-06-07T08:21:14.739Z,0.2
2019-06-07T08:22:01.554Z,0.6
2019-06-07T08:23:29.781Z,0.8
2019-06-07T08:24:10.050Z,0.8
2019-06-07T08:25:10.054Z,0.8
2019-06-07T08:26:00.887Z,0.2
2019-06-07T08:27:22.786Z,0.8
2019-06-07T08:28:30.436Z,0.8
2019-06-07T08:34:21.480Z,0.6
2019-06-07T08:36:02.856Z,0.8
2019-06-07T08:36:38.529Z,0.8
2019-06-07T08:38:23.038Z,0.9
2019-06-07T08:38:56.640Z,0.6
2019-06-07T08:39:52.913Z,0.7
2019-06-07T08:40:56.636Z,0.6
2019-06-07T08:42:00.461Z,0.9
2019-06-07T08:43:23.176Z,1.2
2019-06-07T08:44:21.993Z,1.2
2019-06-07T08:44:54.209Z,1.1
2019-06-07T08:45:59.701Z,0.8
2019-06-07T08:47:04.922Z,1.4
2019-06-07T08:48:27.709Z,0.8
2019-06-07T08:49:04.682Z,1.4
2019-06-07T08:50:07.623Z,1.5
2019-06-07T08:51:08.013Z,0.9
2019-06-07T08:52:07.786Z,0.8
2019-06-07T08:53:34.656Z,0.8
2019-06-07T08:59:24.917Z,1.4
2019-06-07T09:00:43.479Z,0.8
2019-06-07T09:01:25.420Z,0.8
2019-06-07T09:04:25.366Z,0.8
2019-06-07T09:05:25.439Z,1.2
2019-06-07T09:07:01.567Z,0.8
2019-06-07T09:08:23.322Z,0.2
2019-06-07T09:09:01.873Z,0.8
2019-06-07T09:10:01.654Z,0.8
2019-06-07T09:11:04.615Z,0.8
2019-06-07T09:12:07.058Z,1.6
2019-06-07T09:13:29.956Z,1.5
2019-06-07T09:14:10.210Z,0.8
2019-06-07T09:15:14.448Z,0.0
2019-06-07T09:16:04.648Z,0.0
2019-06-07T09:17:05.386Z,0.8
2019-06-07T09:18:41.786Z,0.8
2019-06-07T09:19:11.348Z,0.8
2019-06-07T09:20:34.913Z,0.8
2019-06-07T09:21:11.854Z,0.8
2019-06-07T09:22:11.738Z,0.8
2019-06-07T09:23:41.763Z,0.6
2019-06-07T09:24:21.871Z,0.6
2019-06-07T09:34:06.506Z,1.5
2019-06-07T09:39:08.174Z,1.5
2019-06-07T09:40:19.568Z,1.1
2019-06-07T09:41:06.069Z,0.9
2019-06-07T09:42:09.394Z,0.8
2019-06-07T09:44:02.824Z,1.3
2019-06-07T09:44:24.499Z,1.1
2019-06-07T09:45:14.729Z,1.0
2019-06-07T09:46:15.920Z,0.8
2019-06-07T09:47:45.373Z,1.5
2019-06-07T09:49:09.584Z,1.3
2019-06-07T09:49:28.147Z,1.7
2019-06-07T09:50:16.030Z,1.0
2019-06-07T09:51:19.576Z,0.8
2019-06-07T09:52:57.656Z,0.9
2019-06-07T09:53:46.526Z,0.8
2019-06-07T09:55:02.921Z,0.8
2019-06-07T09:55:26.956Z,0.8
2019-06-07T09:56:27.069Z,1.0
2019-06-07T09:58:03.527Z,1.1
2019-06-07T09:59:00.255Z,0.8
2019-06-07T09:59:59.456Z,1.1
2019-06-07T10:00:59.952Z,0.8
2019-06-07T10:02:00.652Z,1.5
2019-06-07T10:03:28.622Z,1.2
2019-06-07T10:04:21.870Z,1.3
2019-06-07T10:05:01.513Z,1.1
2019-06-07T10:06:00.249Z,0.9
2019-06-07T10:07:08.850Z,0.9
2019-06-07T10:11:16.947Z,1.1
2019-06-07T10:12:46.990Z,1.4
2019-06-07T10:13:47.185Z,0.2
2019-06-07T10:19:48.068Z,0.8
2019-06-07T10:24:48.661Z,1.2
2019-06-07T10:25:48.730Z,1.3
2019-06-07T10:29:10.327Z,0.8
2019-06-07T10:30:10.364Z,0.8
2019-06-07T10:34:10.857Z,0.6
2019-06-07T10:35:12.670Z,0.8
2019-06-07T10:36:10.757Z,1.0
2019-06-07T10:37:14.092Z,1.2
2019-06-07T10:38:41.048Z,1.2
2019-06-07T10:39:20.898Z,0.9
2019-06-07T10:40:11.328Z,1.1
2019-06-07T10:41:11.222Z,0.6
2019-06-07T10:42:11.654Z,0.8
2019-06-07T10:43:41.841Z,0.9
2019-06-07T10:44:22.050Z,1.1
2019-06-07T10:45:21.897Z,1.2
2019-06-07T10:46:22.091Z,1.1
2019-06-07T10:47:22.306Z,1.2
2019-06-07T10:48:24.282Z,0.9
2019-06-07T10:49:22.115Z,0.8
2019-06-07T10:50:22.417Z,1.0
2019-06-07T10:51:22.620Z,1.1
2019-06-07T10:52:52.793Z,1.2
2019-06-07T10:53:53.166Z,1.2
2019-06-07T10:54:53.314Z,0.9
2019-06-07T10:55:53.473Z,0.9
2019-06-07T10:56:53.607Z,1.0
2019-06-07T10:58:23.826Z,0.7
2019-06-07T11:04:14.661Z,1.4
2019-06-07T11:08:45.370Z,0.9
2019-06-07T11:09:25.380Z,1.0
2019-06-07T11:10:25.376Z,0.6
2019-06-07T11:11:25.673Z,0.4
2019-06-07T11:12:55.779Z,0.8
2019-06-07T11:13:55.800Z,1.5
2019-06-07T11:14:55.903Z,1.1
2019-06-07T11:15:56.082Z,0.8
2019-06-07T11:16:56.090Z,0.8
2019-06-07T11:18:26.376Z,0.8
2019-06-07T11:19:17.866Z,0.8
2019-06-07T11:20:16.656Z,0.8
2019-06-07T11:21:16.704Z,1.1
2019-06-07T11:22:46.992Z,0.8
2019-06-07T11:23:47.211Z,0.8
2019-06-07T11:24:27.251Z,0.4
2019-06-07T11:25:27.259Z,0.8
2019-06-07T11:26:27.488Z,0.4
2019-06-07T11:27:57.780Z,1.0
2019-06-07T11:28:57.946Z,0.9
2019-06-07T11:29:48.532Z,0.8
2019-06-07T11:30:48.333Z,0.9
2019-06-07T11:31:48.536Z,1.1
2019-06-07T11:33:18.897Z,0.8
2019-06-07T11:33:58.839Z,0.4
2019-06-07T11:34:58.974Z,0.8
2019-06-07T11:35:59.097Z,1.4
2019-06-07T11:36:59.264Z,1.2
2019-06-07T11:38:36.004Z,0.5
2019-06-07T11:39:16.019Z,0.9
2019-06-07T11:40:29.644Z,1.1
2019-06-07T11:41:17.833Z,1.0
2019-06-07T11:42:46.132Z,1.4
2019-06-07T11:43:46.492Z,1.6
2019-06-07T11:44:26.396Z,1.2
2019-06-07T11:45:16.479Z,1.0
2019-06-07T11:46:17.246Z,1.0
2019-06-07T11:47:46.661Z,1.7
2019-06-07T11:48:47.200Z,0.8
2019-06-07T11:49:27.220Z,1.1
2019-06-07T11:50:27.425Z,1.8
2019-06-07T11:51:27.784Z,1.1
2019-06-07T11:52:58.146Z,0.9
2019-06-07T11:53:58.215Z,0.6
2019-06-07T11:54:58.496Z,1.1
2019-06-07T11:55:59.589Z,0.8
2019-06-07T11:56:58.563Z,0.8
2019-06-07T11:58:28.709Z,0.6
2019-06-07T11:59:08.985Z,1.0
2019-06-07T12:00:09.346Z,0.9
2019-06-07T12:00:59.101Z,0.8
2019-06-07T12:01:59.106Z,1.1
2019-06-07T12:03:29.362Z,1.3
2019-06-07T12:04:09.580Z,1.2
2019-06-07T12:05:13.497Z,0.8
2019-06-07T12:06:10.167Z,1.0
2019-06-07T12:07:45.275Z,1.0
2019-06-07T12:08:45.297Z,1.3
2019-06-07T12:09:28.013Z,1.5
2019-06-07T12:10:25.430Z,1.2
2019-06-07T12:11:25.665Z,1.3
2019-06-07T12:12:55.862Z,1.0
2019-06-07T12:13:56.136Z,1.3
2019-06-07T12:14:56.564Z,0.8
2019-06-07T12:15:56.342Z,1.1
2019-06-07T12:16:56.539Z,0.7
2019-06-07T12:18:26.651Z,0.8
2019-06-07T12:19:56.730Z,0.8
2019-06-07T12:20:56.739Z,0.8
2019-06-07T12:21:56.831Z,1.1
2019-06-07T12:23:27.104Z,1.0
2019-06-07T12:28:48.085Z,1.5
2019-06-07T12:29:28.349Z,1.6
2019-06-07T12:30:28.349Z,1.5
2019-06-07T12:31:28.683Z,1.7
2019-06-07T12:32:58.802Z,0.9
2019-06-07T12:33:59.208Z,0.8
2019-06-07T12:34:59.080Z,1.5
2019-06-07T12:35:59.428Z,1.7
2019-06-07T12:36:59.502Z,1.1
2019-06-07T12:38:30.107Z,0.8
2019-06-07T12:42:30.699Z,0.6
2019-06-07T12:43:30.766Z,0.6
2019-06-07T12:47:31.255Z,1.2
2019-06-07T12:48:31.596Z,1.5
2019-06-07T12:52:32.142Z,0.9
2019-06-07T12:53:32.214Z,0.9
2019-06-07T12:57:52.450Z,0.9
2019-06-07T12:58:52.656Z,0.8
2019-06-07T12:59:52.611Z,0.8
2019-06-07T13:00:52.617Z,0.8
2019-06-07T13:01:52.970Z,0.8
2019-06-07T13:03:24.455Z,1.0
2019-06-07T13:04:03.012Z,0.6
2019-06-07T13:05:04.606Z,0.6
2019-06-07T13:06:03.043Z,0.8
2019-06-07T13:07:24.249Z,0.6
2019-06-07T13:08:23.897Z,1.3
2019-06-07T13:09:03.631Z,0.9
2019-06-07T13:10:03.510Z,1.1
2019-06-07T13:11:14.661Z,0.8
2019-06-07T13:12:33.827Z,1.1
2019-06-07T13:13:33.993Z,1.0
2019-06-07T13:15:25.793Z,0.8
2019-06-07T13:16:24.325Z,1.1
2019-06-07T13:17:54.624Z,1.0
2019-06-07T13:18:54.835Z,1.0
2019-06-07T13:19:54.936Z,0.8
2019-06-07T13:20:55.567Z,0.8
2019-06-07T13:21:55.379Z,0.8
2019-06-07T13:23:25.587Z,0.8
2019-06-07T13:24:18.730Z,0.8
2019-06-07T13:25:18.404Z,0.8
2019-06-07T13:26:18.474Z,0.7
2019-06-07T13:27:47.389Z,0.8
2019-06-07T13:28:47.599Z,0.2
2019-06-07T13:29:29.914Z,0.8
2019-06-07T13:30:18.800Z,0.6
2019-06-07T13:31:18.742Z,0.8
2019-06-07T13:34:24.276Z,0.5
2019-06-07T13:35:25.464Z,0.8
2019-06-07T13:36:24.358Z,0.8
2019-06-07T13:37:53.953Z,1.0
2019-06-07T13:41:04.163Z,1.2
2019-06-07T13:42:34.225Z,1.2
2019-06-07T13:43:34.266Z,0.8
2019-06-07T13:53:54.497Z,1.0
2019-06-07T13:54:54.499Z,1.3
2019-06-07T13:55:54.568Z,1.2
2019-06-07T13:57:01.819Z,1.0
2019-06-07T13:58:24.600Z,0.8
2019-06-07T14:08:54.828Z,0.6
2019-06-07T14:09:54.878Z,0.8
2019-06-07T14:10:54.844Z,0.4
2019-06-07T14:12:26.167Z,0.2
2019-06-07T14:13:34.938Z,0.0
2019-06-07T14:23:05.187Z,0.8
2019-06-07T14:25:45.926Z,1.1
2019-06-07T14:28:55.308Z,0.8
2019-06-07T14:29:55.335Z,0.9
2019-06-07T14:30:55.328Z,0.8
2019-06-07T14:32:26.573Z,0.8
2019-06-07T14:33:35.420Z,0.8
2019-06-07T14:38:37.453Z,0.8
2019-06-07T14:40:18.248Z,1.2
2019-06-07T14:41:18.252Z,0.9
2019-06-07T14:42:48.332Z,1.4
2019-06-07T14:43:48.394Z,1.3
2019-06-07T14:44:48.397Z,0.8
2019-06-07T14:45:58.394Z,0.8
2019-06-07T14:47:29.640Z,0.8
2019-06-07T14:48:28.523Z,0.8
2019-06-07T14:49:08.466Z,0.8
2019-06-07T14:50:08.493Z,1.2
2019-06-07T14:51:08.523Z,0.6
2019-06-07T14:52:38.544Z,0.8
2019-06-07T14:53:38.577Z,0.8
2019-06-07T14:54:39.322Z,0.8
2019-06-07T14:55:38.610Z,0.8
2019-06-07T14:56:38.627Z,0.8
2019-06-07T14:58:08.707Z,0.8
2019-06-07T14:58:48.726Z,0.2
2019-06-07T15:00:58.694Z,0.8
2019-06-07T15:02:28.713Z,1.0
2019-06-07T15:03:28.730Z,1.0
2019-06-07T15:04:08.757Z,0.8
2019-06-07T15:05:08.779Z,0.4
2019-06-07T15:06:08.787Z,0.6
2019-06-07T15:07:40.410Z,0.8
2019-06-07T15:08:39.194Z,0.6
2019-06-07T15:09:39.352Z,0.0
2019-06-07T15:10:31.819Z,0.0
2019-06-07T15:11:31.116Z,0.2
2019-06-07T15:12:49.860Z,0.6
2019-06-07T15:13:49.930Z,0.7
2019-06-07T15:14:59.941Z,0.6
2019-06-07T15:15:59.952Z,0.8
2019-06-07T15:17:31.214Z,0.8
2019-06-07T15:18:29.998Z,1.0
2019-06-07T15:19:09.993Z,1.0
2019-06-07T15:20:00.013Z,1.0
2019-06-07T15:21:00.045Z,0.4
2019-06-07T15:22:30.251Z,0.7
2019-06-07T15:23:31.076Z,0.6
2019-06-07T15:24:10.123Z,0.6
2019-06-07T15:25:10.109Z,0.8
2019-06-07T15:26:10.128Z,0.8
2019-06-07T15:27:40.174Z,1.0
2019-06-07T15:28:40.257Z,1.0
2019-06-07T15:39:00.560Z,0.4
2019-06-07T15:40:10.588Z,0.6
2019-06-07T15:41:10.611Z,0.9
2019-06-07T15:42:51.638Z,0.8
2019-06-07T15:43:40.654Z,0.4
2019-06-07T15:45:10.745Z,0.4
2019-06-07T15:46:10.706Z,0.7
2019-06-07T15:47:40.801Z,0.9
2019-06-07T15:48:40.777Z,0.9
2019-06-07T15:58:01.004Z,0.6
2019-06-07T15:59:11.018Z,0.8
2019-06-07T16:00:11.027Z,0.8
2019-06-07T16:01:11.035Z,0.8
2019-06-07T16:02:41.757Z,0.8
2019-06-07T16:05:21.096Z,0.8
2019-06-07T16:13:01.259Z,0.8
2019-06-07T16:14:11.279Z,0.8
2019-06-07T16:15:11.286Z,0.8
2019-06-07T16:16:11.325Z,0.6
2019-06-07T16:17:41.953Z,0.0
2019-06-07T16:19:11.339Z,0.0
2019-06-07T16:20:11.352Z,0.6
2019-06-07T16:21:11.357Z,0.8
2019-06-07T16:22:41.975Z,1.0
2019-06-07T16:33:01.674Z,1.1
2019-06-07T16:34:11.636Z,1.3
2019-06-07T16:35:12.081Z,1.4
2019-06-07T16:36:11.722Z,1.3
2019-06-07T16:37:42.922Z,1.0
2019-06-07T16:53:02.037Z,1.3
2019-06-07T16:54:12.054Z,1.3
2019-06-07T16:55:13.029Z,1.1
2019-06-07T16:56:12.093Z,0.8
2019-06-07T16:57:42.875Z,0.9
2019-06-07T17:01:12.333Z,1.3
2019-06-07T17:02:42.337Z,0.8
2019-06-07T17:13:02.512Z,1.3
2019-06-07T17:14:02.697Z,1.3
2019-06-07T17:15:02.532Z,1.0
2019-06-07T17:16:02.553Z,0.8
2019-06-07T17:17:32.595Z,0.8
2019-06-07T17:18:12.677Z,0.9
2019-06-07T17:19:12.669Z,0.9
2019-06-07T17:32:15.950Z,0.6
2019-06-07T17:33:03.029Z,0.8
2019-06-07T17:34:03.042Z,0.8
2019-06-07T17:35:03.041Z,0.8
2019-06-07T17:36:03.059Z,0.8
2019-06-07T17:38:03.108Z,0.8
2019-06-07T17:39:03.133Z,0.8
2019-06-07T17:40:03.152Z,1.2
2019-06-07T17:41:03.139Z,0.9
2019-06-07T17:43:03.201Z,1.2
2019-06-07T17:44:03.273Z,0.9
2019-06-07T17:45:03.775Z,0.8
2019-06-07T17:46:03.282Z,0.8
2019-06-07T17:48:13.325Z,0.8
2019-06-07T17:52:43.812Z,0.0
2019-06-07T17:56:13.577Z,0.4
2019-06-07T17:57:33.675Z,0.2
2019-06-07T17:58:13.753Z,0.0
2019-06-07T17:59:13.721Z,0.8
2019-06-07T18:00:27.933Z,0.4
2019-06-07T18:01:13.881Z,0.8
2019-06-07T18:02:33.841Z,0.2
2019-06-07T18:06:13.934Z,0.0
2019-06-07T18:07:33.980Z,0.0
2019-06-07T18:08:13.980Z,0.0
2019-06-07T18:09:14.177Z,0.0
2019-06-07T18:10:14.216Z,0.0
2019-06-07T18:11:14.093Z,0.6
2019-06-07T18:12:34.173Z,0.0
2019-06-07T18:16:44.455Z,0.0
2019-06-07T18:17:44.532Z,0.0
2019-06-07T18:18:14.392Z,0.0
2019-06-07T18:19:14.392Z,0.0
2019-06-07T18:20:14.404Z,0.0
2019-06-07T18:21:14.560Z,0.0
2019-06-07T18:22:34.441Z,0.0
2019-06-07T18:26:44.515Z,0.0
2019-06-07T18:27:44.527Z,0.0
2019-06-07T18:28:14.528Z,0.0
2019-06-07T18:29:14.552Z,0.0
2019-06-07T18:30:14.589Z,0.0
2019-06-07T18:31:14.596Z,0.0
2019-06-07T18:32:34.608Z,0.0
2019-06-07T18:36:44.749Z,0.0
2019-06-07T18:37:44.738Z,0.0
2019-06-07T18:38:14.756Z,0.0
2019-06-07T18:39:14.751Z,0.0
2019-06-07T18:40:14.861Z,0.0
2019-06-07T18:41:14.916Z,0.0
2019-06-07T18:42:45.027Z,0.0
2019-06-07T18:43:25.051Z,0.0
2019-06-07T18:44:25.057Z,0.0
2019-06-07T18:45:25.082Z,0.0
2019-06-07T18:46:55.156Z,0.0
2019-06-07T18:47:55.744Z,0.0
2019-06-07T18:48:55.258Z,0.0
2019-06-07T18:49:55.548Z,0.0
2019-06-07T18:50:55.291Z,0.0
2019-06-07T18:52:25.290Z,0.0
2019-06-07T18:53:15.307Z,0.0
2019-06-07T18:54:15.328Z,0.0
2019-06-07T18:55:15.365Z,0.0
2019-06-07T18:56:15.474Z,0.0
2019-06-07T18:57:45.456Z,0.0
2019-06-07T18:59:25.531Z,0.0
2019-06-07T19:05:25.823Z,0.0
2019-06-07T19:06:15.816Z,0.0
2019-06-07T19:07:15.826Z,0.0
2019-06-07T19:08:15.841Z,0.4
2019-06-07T19:09:50.549Z,0.0
2019-06-07T19:10:50.613Z,0.2
2019-06-07T19:16:19.692Z,0.2
2019-06-07T19:17:09.728Z,0.2
2019-06-07T19:18:09.698Z,0.2
2019-06-07T19:19:39.776Z,0.0
2019-06-07T19:20:39.753Z,0.0
2019-06-07T19:21:19.769Z,0.6
2019-06-07T19:22:19.797Z,0.6
2019-06-07T19:23:19.895Z,0.8
2019-06-07T19:26:19.966Z,0.0
2019-06-07T19:27:19.935Z,0.0
2019-06-07T19:28:20.006Z,0.0
2019-06-07T19:29:40.033Z,0.0
2019-06-07T19:30:40.072Z,0.0
2019-06-07T19:34:51.111Z,0.0
2019-06-07T19:35:51.344Z,0.0
2019-06-07T19:36:51.176Z,0.0
2019-06-07T19:37:50.183Z,0.0
2019-06-07T19:38:51.700Z,0.0
2019-06-07T19:40:10.193Z,0.0
2019-06-07T19:43:10.364Z,0.0
2019-06-07T19:46:20.392Z,0.0
2019-06-07T19:47:10.496Z,0.0
2019-06-07T19:48:10.580Z,0.0
2019-06-07T19:51:10.711Z,0.0
2019-06-07T19:52:10.780Z,0.0
2019-06-07T19:53:10.932Z,0.0
2019-06-07T19:56:20.922Z,0.6
2019-06-07T19:57:10.943Z,0.9
2019-06-07T19:58:11.017Z,0.6
2019-06-07T20:01:11.017Z,0.8
2019-06-07T20:02:11.037Z,0.6
2019-06-07T20:03:11.045Z,0.8
2019-06-07T20:06:21.151Z,0.8
2019-06-07T20:07:11.109Z,0.8
2019-06-07T20:08:11.184Z,0.2
2019-06-07T20:11:11.197Z,0.2
2019-06-07T20:12:11.283Z,0.8
2019-06-07T20:13:11.239Z,0.8
2019-06-07T20:16:21.246Z,0.0